To NAV CANADA Home Page Login to a new session Search on AWWS site Disclaimer Vers la page française équivalente Tips FAQ What's new on the site To the Forecasts and Observations / NOTAM section To "File a Flight Plan" website Publications and other links Update of the User's profile FIC Telephone Numbers My Weather Data Folder Route Weather Data Regional Weather Data Local Weather Data To the Forecasts and Observations / NOTAM section
Request Generated 03/18/2019 at 20:02:48 UTC . Weather information available at that time is displayed.

METAR/TAF

WHITEHORSE/ERIK NIELSEN INTL/YT    

METAR CYXY 181900Z 16024G31KT 40SM FEW065 FEW140 BKN250 09/M01 A2978 RMK CU1AC1CI3 SLP110 DENSITY ALT 2400FT=
METAR CYXY 181800Z 17022G29KT 40SM SCT070 SCT140 BKN250 08/M02 A2978 RMK AC3AC1CI4 AC TR SLP111=
METAR CYXY 181700Z 16015G25KT 40SM SCT063 SCT140 BKN200 07/M02 A2978 RMK SC3AC1CI2 AC TR ACSL SLP113=

TAF CYXY 181738Z 1818/1906 16015G25KT P6SM SCT060 BKN200
FM182200 16025G35KT P6SM SCT240
RMK NXT FCST BY 190000Z=
Your time UTC time
Weather data provided by Environment Canada and NAV CANADA